createdAt,value
2022-09-22T00:02:05.841Z,2.43
2022-09-22T00:07:08.752Z,2.77
2022-09-22T00:12:13.419Z,3.03
2022-09-22T00:17:16.421Z,2.90
2022-09-22T00:22:19.588Z,3.03
2022-09-22T00:27:24.248Z,3.63
2022-09-22T00:32:27.355Z,2.97
2022-09-22T00:37:30.350Z,4.30
2022-09-22T00:42:34.642Z,3.33
2022-09-22T00:47:40.416Z,4.27
2022-09-22T00:52:48.803Z,3.60
2022-09-22T00:57:55.070Z,4.47
2022-09-22T01:03:00.405Z,4.07
2022-09-22T01:08:04.413Z,3.60
2022-09-22T01:13:25.525Z,3.40
2022-09-22T01:18:40.163Z,3.40
2022-09-22T01:24:08.557Z,3.43
2022-09-22T01:29:40.961Z,3.87
2022-09-22T01:34:52.020Z,3.50
2022-09-22T01:39:59.971Z,3.43
2022-09-22T01:45:09.891Z,3.93
2022-09-22T01:50:20.176Z,3.50
2022-09-22T01:55:27.686Z,2.90
2022-09-22T02:00:31.461Z,3.87
2022-09-22T02:05:42.315Z,3.80
2022-09-22T02:10:48.740Z,3.70
2022-09-22T02:16:03.586Z,3.97
2022-09-22T02:21:08.102Z,3.50
2022-09-22T02:26:13.788Z,3.93
2022-09-22T02:31:20.940Z,3.90
2022-09-22T02:36:39.941Z,3.60
2022-09-22T02:41:57.840Z,3.70
2022-09-22T02:47:04.891Z,3.80
2022-09-22T02:52:14.011Z,3.90
2022-09-22T02:57:16.864Z,5.40
2022-09-22T03:02:19.782Z,3.77
2022-09-22T03:07:24.309Z,4.10
2022-09-22T03:12:27.109Z,4.13
2022-09-22T03:17:32.202Z,3.97
2022-09-22T03:22:36.532Z,4.73
2022-09-22T03:27:40.095Z,4.53
2022-09-22T03:32:43.004Z,4.90
2022-09-22T03:37:47.943Z,5.50
2022-09-22T03:42:51.206Z,4.40
2022-09-22T03:47:54.466Z,4.97
2022-09-22T03:52:59.651Z,4.93
2022-09-22T03:58:02.874Z,6.30
2022-09-22T04:03:05.892Z,5.93
2022-09-22T04:08:10.164Z,5.53
2022-09-22T04:13:13.336Z,6.33
2022-09-22T04:18:16.325Z,6.70
2022-09-22T04:23:20.737Z,6.57
2022-09-22T04:28:23.806Z,6.13
2022-09-22T04:33:27.145Z,6.00
2022-09-22T04:38:31.424Z,6.00
2022-09-22T04:43:34.435Z,6.83
2022-09-22T04:48:37.310Z,6.80
2022-09-22T04:53:41.594Z,7.87
2022-09-22T04:58:44.718Z,8.23
2022-09-22T05:03:47.711Z,6.57
2022-09-22T05:08:52.042Z,7.47
2022-09-22T05:13:56.177Z,7.80
2022-09-22T05:18:59.576Z,7.87
2022-09-22T05:24:04.224Z,6.77
2022-09-22T05:29:07.161Z,8.10
2022-09-22T05:34:10.056Z,6.80
2022-09-22T05:39:14.900Z,6.93
2022-09-22T05:44:18.460Z,7.03
2022-09-22T05:49:21.402Z,7.70
2022-09-22T05:54:26.257Z,8.30
2022-09-22T05:59:29.157Z,8.70
2022-09-22T06:04:32.229Z,9.50
2022-09-22T06:09:36.505Z,8.80
2022-09-22T06:14:39.452Z,9.27
2022-09-22T06:19:43.212Z,9.00
2022-09-22T06:24:48.888Z,9.43
2022-09-22T06:29:51.993Z,9.87
2022-09-22T06:34:56.160Z,11.00
2022-09-22T06:40:00.597Z,10.47
2022-09-22T06:45:04.749Z,10.60
2022-09-22T06:50:09.752Z,9.90
2022-09-22T06:55:19.440Z,11.07
2022-09-22T07:00:22.993Z,10.30
2022-09-22T07:05:26.103Z,11.93
2022-09-22T07:10:30.444Z,12.03
2022-09-22T07:15:35.590Z,13.03
2022-09-22T07:20:38.559Z,12.93
2022-09-22T07:25:43.432Z,12.37
2022-09-22T07:30:47.832Z,13.13
2022-09-22T07:35:59.582Z,12.60
2022-09-22T07:41:05.412Z,12.57
2022-09-22T07:46:09.244Z,14.43
2022-09-22T07:51:18.436Z,15.37
2022-09-22T07:56:27.850Z,13.77
2022-09-22T08:01:32.259Z,13.33
2022-09-22T08:06:36.134Z,12.13
2022-09-22T08:11:40.817Z,12.20
2022-09-22T08:16:44.493Z,12.27
2022-09-22T08:21:49.798Z,11.10
2022-09-22T08:26:56.097Z,12.10
2022-09-22T08:31:59.205Z,11.40
2022-09-22T08:37:02.237Z,11.70
2022-09-22T08:42:14.416Z,9.33
2022-09-22T08:47:41.252Z,10.60
2022-09-22T08:52:50.238Z,10.00
2022-09-22T08:58:02.056Z,9.37
2022-09-22T09:03:23.448Z,8.30
2022-09-22T09:09:01.383Z,8.18
2022-09-22T09:14:22.144Z,8.15
2022-09-22T09:19:39.248Z,7.68
2022-09-22T09:30:17.890Z,6.60
2022-09-22T09:35:26.782Z,7.43
2022-09-22T09:40:30.221Z,6.78
2022-09-22T09:45:43.719Z,7.72
2022-09-22T09:50:46.556Z,6.55
2022-09-22T09:55:50.904Z,7.15
2022-09-22T10:00:58.878Z,6.72
2022-09-22T10:06:06.267Z,7.13
2022-09-22T10:11:10.400Z,6.55
2022-09-22T10:16:35.983Z,5.70
2022-09-22T10:21:38.845Z,5.93
2022-09-22T10:26:56.105Z,5.15
2022-09-22T10:32:21.479Z,5.25
2022-09-22T10:37:28.928Z,5.20
2022-09-22T10:42:36.877Z,2.80
2022-09-22T10:47:57.281Z,2.00
2022-09-22T10:53:17.683Z,1.90
2022-09-22T10:58:28.413Z,1.85
2022-09-22T11:04:03.569Z,1.55
2022-09-22T11:09:34.914Z,2.20
2022-09-22T11:15:07.779Z,1.85
2022-09-22T11:20:36.832Z,1.35
2022-09-22T11:25:54.352Z,1.80
2022-09-22T11:30:59.065Z,1.67
2022-09-22T11:36:16.851Z,1.70
2022-09-22T11:41:31.700Z,1.40
2022-09-22T11:46:48.010Z,1.55
2022-09-22T11:52:17.561Z,2.20
2022-09-22T11:57:24.613Z,1.40
2022-09-22T12:02:35.148Z,1.50
2022-09-22T12:07:47.174Z,1.20
2022-09-22T12:12:51.923Z,2.50
2022-09-22T12:18:02.114Z,1.02
2022-09-22T12:23:38.002Z,1.40
2022-09-22T12:28:45.621Z,1.00
2022-09-22T12:33:51.225Z,1.15
2022-09-22T12:38:54.231Z,1.30
2022-09-22T12:44:09.481Z,1.23
2022-09-22T12:49:17.070Z,1.40
2022-09-22T12:54:40.020Z,0.95
2022-09-22T12:59:59.802Z,1.33
2022-09-22T13:05:44.154Z,1.30
2022-09-22T13:10:57.458Z,0.88
2022-09-22T13:16:03.131Z,1.20
2022-09-22T13:21:23.809Z,0.93
2022-09-22T13:26:29.469Z,0.90
2022-09-22T13:31:42.738Z,1.00
2022-09-22T13:36:46.259Z,0.80
2022-09-22T13:41:53.837Z,1.40
2022-09-22T13:47:01.312Z,1.20
2022-09-22T13:52:07.808Z,1.30
2022-09-22T13:57:21.563Z,1.38
2022-09-22T14:02:31.351Z,0.93
2022-09-22T14:07:55.099Z,1.17
2022-09-22T14:13:01.783Z,1.00
2022-09-22T14:18:15.753Z,1.00
2022-09-22T14:23:26.000Z,1.17
2022-09-22T14:28:32.940Z,1.52
2022-09-22T14:33:37.590Z,1.17
2022-09-22T14:38:46.727Z,1.20
2022-09-22T14:43:55.410Z,1.10
2022-09-22T14:48:59.983Z,1.15
2022-09-22T14:54:05.716Z,1.65
2022-09-22T14:59:24.092Z,1.10
2022-09-22T15:04:31.165Z,1.17
2022-09-22T15:09:39.613Z,1.00
2022-09-22T15:14:44.390Z,1.02
2022-09-22T15:19:53.501Z,1.02
2022-09-22T15:24:58.356Z,0.75
2022-09-22T15:30:01.390Z,1.10
2022-09-22T15:35:06.733Z,0.93
2022-09-22T15:40:17.953Z,1.15
2022-09-22T15:45:22.601Z,1.00
2022-09-22T15:50:30.540Z,1.05
2022-09-22T15:55:34.485Z,1.33
2022-09-22T16:00:38.172Z,1.00
2022-09-22T16:05:43.304Z,1.00
2022-09-22T16:10:46.409Z,1.00
2022-09-22T16:15:50.401Z,1.08
2022-09-22T16:21:04.242Z,1.00
2022-09-22T16:26:07.255Z,1.00
2022-09-22T16:31:10.194Z,1.30
2022-09-22T16:36:14.624Z,1.30
2022-09-22T16:41:21.967Z,1.20
2022-09-22T16:46:28.541Z,1.33
2022-09-22T16:51:35.569Z,1.30
2022-09-22T16:56:39.141Z,1.70
2022-09-22T17:01:43.756Z,1.80
2022-09-22T17:06:48.862Z,1.90
2022-09-22T17:11:52.812Z,2.08
2022-09-22T17:16:57.434Z,2.17
2022-09-22T17:22:01.718Z,2.15
2022-09-22T17:27:05.684Z,1.88
2022-09-22T17:32:09.077Z,2.05
2022-09-22T17:37:15.683Z,1.95
2022-09-22T17:42:19.454Z,2.00
2022-09-22T17:47:39.897Z,3.00
2022-09-22T17:53:01.942Z,3.95
2022-09-22T17:58:04.920Z,2.75
2022-09-22T18:03:07.840Z,2.45
2022-09-22T18:08:13.154Z,2.33
2022-09-22T18:13:16.267Z,2.10
2022-09-22T18:18:19.517Z,2.00
2022-09-22T18:23:28.360Z,2.17
2022-09-22T18:28:31.479Z,2.72
2022-09-22T18:33:36.374Z,2.10
2022-09-22T18:38:42.377Z,3.10
2022-09-22T18:43:45.835Z,6.25
2022-09-22T18:48:49.955Z,3.70
2022-09-22T18:53:55.053Z,5.78
2022-09-22T18:58:58.029Z,4.63
2022-09-22T19:04:01.659Z,5.22
2022-09-22T19:09:06.390Z,3.55
2022-09-22T19:14:10.741Z,4.50
2022-09-22T19:19:14.200Z,3.30
2022-09-22T19:24:18.844Z,3.13
2022-09-22T19:29:22.009Z,2.78
2022-09-22T19:34:25.069Z,3.67
2022-09-22T19:39:31.028Z,3.53
2022-09-22T19:44:33.934Z,3.55
2022-09-22T19:49:36.892Z,3.60
2022-09-22T19:54:41.259Z,3.92
2022-09-22T19:59:44.941Z,4.25
2022-09-22T20:04:48.193Z,4.35
2022-09-22T20:09:52.510Z,4.47
2022-09-22T20:14:55.853Z,4.20
2022-09-22T20:19:58.899Z,4.25
2022-09-22T20:25:05.182Z,5.07
2022-09-22T20:30:09.462Z,4.80
2022-09-22T20:35:14.427Z,4.50
2022-09-22T20:40:21.598Z,4.33
2022-09-22T20:45:25.302Z,4.33
2022-09-22T20:50:28.398Z,4.80
2022-09-22T20:55:33.069Z,4.35
2022-09-22T21:00:36.098Z,4.80
2022-09-22T21:05:39.198Z,4.70
2022-09-22T21:10:43.560Z,4.70
2022-09-22T21:15:46.849Z,4.43
2022-09-22T21:20:50.212Z,4.93
2022-09-22T21:26:04.099Z,5.20
2022-09-22T21:31:09.062Z,4.93
2022-09-22T21:36:14.751Z,4.80
2022-09-22T21:41:21.304Z,5.60
2022-09-22T21:46:26.270Z,5.20
2022-09-22T21:51:30.659Z,4.77
2022-09-22T21:56:35.883Z,5.40
2022-09-22T22:01:40.938Z,4.90
2022-09-22T22:06:45.679Z,5.70
2022-09-22T22:11:53.917Z,6.03
2022-09-22T22:16:56.833Z,5.80
2022-09-22T22:21:59.726Z,5.50
2022-09-22T22:27:06.935Z,5.90
2022-09-22T22:32:11.608Z,5.63
2022-09-22T22:37:14.663Z,5.13
2022-09-22T22:42:19.057Z,5.60
2022-09-22T22:47:22.115Z,5.37
2022-09-22T22:52:25.030Z,5.13
2022-09-22T22:57:30.167Z,5.87
2022-09-22T23:02:33.065Z,5.87
2022-09-22T23:07:36.079Z,6.50
2022-09-22T23:12:40.579Z,6.37
2022-09-22T23:17:43.524Z,7.00
2022-09-22T23:22:46.502Z,6.07
2022-09-22T23:27:51.081Z,6.40
2022-09-22T23:32:54.131Z,5.83
2022-09-22T23:37:57.294Z,6.27
2022-09-22T23:43:01.737Z,5.73
2022-09-22T23:48:04.824Z,5.50
2022-09-22T23:53:08.518Z,5.73
2022-09-22T23:58:14.308Z,6.40
